Time;durP1;ratioP1;P1;durP2;ratioP2;P2;SDS_P1;SDS_P2;PMS_P1;PMS_P2;Temp;Humidity;BMP_temperature;BMP_pressure;BME280_temperature;BME280_humidity;BME280_pressure;Samples;Min_cycle;Max_cycle;Signal;HPM_P1;HPM_P2
2022/10/03 00:02:03;;;;;;;;;;;;;;;17.19;59.34;99802.44;4266813;33;19992;-91
2022/10/03 00:04:49;;;;;;;;;;;;;;;17.24;59.20;99799.78;4266649;33;19997;-92
2022/10/03 00:07:22;;;;;;;;;;;;;;;17.19;59.12;99795.44;4266917;33;20369;-92
2022/10/03 00:10:28;;;;;;;;;;;;;;;16.78;60.72;99800.25;4229757;33;19994;-88
2022/10/03 00:13:09;;;;;;;;;;;;;;;16.90;60.08;99810.59;4208502;33;19993;-92
2022/10/03 00:15:37;;;;;;;;;;;;;;;17.14;59.30;99805.09;4210903;33;20012;-92
2022/10/03 00:18:22;;;;;;;;;;;;;;;17.12;59.24;99809.47;4247344;33;20002;-89
2022/10/03 00:21:08;;;;;;;;;;;;;;;17.06;59.37;99806.94;4251035;33;20380;-91
2022/10/03 00:23:35;;;;;;;;;;;;;;;17.17;58.96;99820.78;4225387;33;19978;-90
2022/10/03 00:26:27;;;;;;;;;;;;;;;16.85;59.97;99812.41;4225281;33;20001;-92
2022/10/03 00:29:01;;;;;;;;;;;;;;;16.90;60.09;99815.81;4257558;33;20001;-89
2022/10/03 00:31:36;;;;;;;;;;;;;;;17.20;58.67;99810.28;4252827;33;20048;-92
2022/10/03 00:34:10;;;;;;;;;;;;;;;16.75;59.98;99816.81;4241439;33;20009;-91
2022/10/03 00:36:37;;;;;;;;;;;;;;;16.95;59.51;99814.03;4240966;33;19998;-90
2022/10/03 00:39:23;;;;;;;;;;;;;;;16.77;60.22;99808.97;4254843;33;19997;-90
2022/10/03 00:41:52;;;;;;;;;;;;;;;16.89;59.61;99816.72;4263933;33;20746;-92
2022/10/03 00:44:25;;;;;;;;;;;;;;;17.05;59.23;99815.66;4247964;33;19990;-92
2022/10/03 00:46:59;;;;;;;;;;;;;;;17.12;58.89;99827.78;4239846;33;20076;-92
2022/10/03 00:49:30;;;;;;;;;;;;;;;16.94;59.60;99823.63;4229126;33;19989;-91
2022/10/03 00:51:57;;;;;;;;;;;;;;;17.15;58.44;99826.91;4241128;33;19989;-91
2022/10/03 00:54:27;;;;;;;;;;;;;;;16.98;59.02;99819.25;4253430;33;19982;-92
2022/10/03 00:57:00;;;;;;;;;;;;;;;16.88;59.25;99828.03;4235631;33;20002;-91
2022/10/03 00:59:33;;;;;;;;;;;;;;;17.00;58.86;99820.06;4278233;33;20015;-90
2022/10/03 01:02:19;;;;;;;;;;;;;;;17.09;58.88;99819.97;4293392;33;20096;-91
2022/10/03 01:04:49;;;;;;;;;;;;;;;16.98;59.07;99814.00;4263473;33;19977;-91
2022/10/03 01:07:32;;;;;;;;;;;;;;;16.98;58.85;99807.91;4268925;33;20012;-91
2022/10/03 01:10:20;;;;;;;;;;;;;;;16.67;60.35;99809.03;4278936;33;19984;-91
2022/10/03 01:12:56;;;;;;;;;;;;;;;16.78;59.78;99806.34;4280698;33;19985;-91
2022/10/03 01:15:42;;;;;;;;;;;;;;;16.84;59.32;99800.19;4282490;33;19973;-92
2022/10/03 01:18:12;;;;;;;;;;;;;;;16.89;59.03;99798.41;4267864;33;19997;-86
2022/10/03 01:20:49;;;;;;;;;;;;;;;17.02;58.50;99810.47;4268915;33;20012;-90
2022/10/03 01:23:24;;;;;;;;;;;;;;;16.90;58.81;99819.28;4282262;33;19988;-92
2022/10/03 01:25:57;;;;;;;;;;;;;;;16.83;58.87;99827.22;4254659;33;20052;-92
2022/10/03 01:31:26;;;;;;;;;;;;;;;16.73;59.21;99840.34;4296760;33;20476;-90
2022/10/03 01:34:04;;;;;;;;;;;;;;;16.70;59.20;99824.69;4269613;33;19993;-90
2022/10/03 01:36:36;;;;;;;;;;;;;;;16.64;59.56;99840.44;4269036;33;19991;-91
2022/10/03 01:39:03;;;;;;;;;;;;;;;16.77;59.17;99840.34;4269593;33;20463;-91
2022/10/03 01:41:33;;;;;;;;;;;;;;;16.74;59.04;99844.69;4275385;33;20004;-92
2022/10/03 01:44:12;;;;;;;;;;;;;;;16.71;59.21;99847.31;4253570;33;19985;-92
2022/10/03 01:46:44;;;;;;;;;;;;;;;16.65;59.35;99846.50;4253950;33;19981;-91
2022/10/03 01:49:11;;;;;;;;;;;;;;;16.48;59.89;99849.28;4252565;33;20054;-92
2022/10/03 01:51:46;;;;;;;;;;;;;;;16.62;59.62;99851.75;4253259;33;20009;-92
2022/10/03 01:54:15;;;;;;;;;;;;;;;16.40;60.04;99846.72;4253581;33;20000;-92
2022/10/03 01:57:02;;;;;;;;;;;;;;;16.45;60.10;99844.06;4254196;33;19978;-92
2022/10/03 02:00:06;;;;;;;;;;;;;;;16.47;60.08;99847.56;4253517;33;20000;-91
2022/10/03 02:02:45;;;;;;;;;;;;;;;16.37;60.26;99851.09;4240323;33;20435;-92
2022/10/03 02:05:35;;;;;;;;;;;;;;;16.44;60.13;99853.66;4252266;33;19994;-90
2022/10/03 02:08:04;;;;;;;;;;;;;;;16.42;60.27;99849.31;4242810;33;19990;-92
2022/10/03 02:10:34;;;;;;;;;;;;;;;16.69;59.04;99856.94;4261967;33;19997;-91
2022/10/03 02:13:06;;;;;;;;;;;;;;;16.72;58.85;99858.66;4253343;33;20454;-91
2022/10/03 02:16:12;;;;;;;;;;;;;;;16.42;59.97;99862.38;4254888;33;20012;-91
2022/10/03 02:18:40;;;;;;;;;;;;;;;16.37;60.26;99864.16;4241405;33;20005;-92
2022/10/03 02:21:09;;;;;;;;;;;;;;;16.35;60.23;99863.31;4245137;33;19994;-90
2022/10/03 02:23:37;;;;;;;;;;;;;;;16.55;59.29;99861.41;4245223;33;20004;-91
2022/10/03 02:26:26;;;;;;;;;;;;;;;16.24;60.14;99864.25;4240677;33;20000;-86
2022/10/03 02:29:09;;;;;;;;;;;;;;;16.32;60.30;99868.56;4256185;33;19977;-92
2022/10/03 02:31:59;;;;;;;;;;;;;;;16.02;61.23;99866.13;4268232;33;19993;-91
2022/10/03 02:34:41;;;;;;;;;;;;;;;16.44;59.84;99874.56;4259193;33;19981;-92
2022/10/03 02:37:08;;;;;;;;;;;;;;;16.44;59.68;99869.34;4267861;33;19988;-92
2022/10/03 02:39:54;;;;;;;;;;;;;;;16.50;59.92;99878.87;4268251;33;20272;-92
2022/10/03 02:42:35;;;;;;;;;;;;;;;16.24;60.39;99889.47;4260625;33;19993;-91
2022/10/03 02:45:02;;;;;;;;;;;;;;;16.58;59.25;99890.12;4244301;33;20004;-90
2022/10/03 02:47:40;;;;;;;;;;;;;;;16.33;60.02;99881.59;4264763;33;19996;-92
2022/10/03 02:50:07;;;;;;;;;;;;;;;16.34;59.99;99878.13;4254890;33;19977;-91
2022/10/03 02:52:43;;;;;;;;;;;;;;;16.33;60.08;99880.72;4260466;33;20001;-91
2022/10/03 02:55:10;;;;;;;;;;;;;;;16.25;60.06;99879.03;4266398;33;20001;-91
2022/10/03 02:57:45;;;;;;;;;;;;;;;16.16;60.34;99878.22;4267728;33;19989;-90
2022/10/03 03:00:15;;;;;;;;;;;;;;;16.25;60.06;99868.59;4254131;33;19981;-91
2022/10/03 03:02:45;;;;;;;;;;;;;;;16.37;59.50;99872.88;4267797;33;20007;-91
2022/10/03 03:05:29;;;;;;;;;;;;;;;16.32;59.67;99873.78;4266800;33;20332;-90
2022/10/03 03:08:02;;;;;;;;;;;;;;;16.23;59.73;99875.56;4254314;33;20003;-93
2022/10/03 03:10:44;;;;;;;;;;;;;;;16.36;59.30;99876.34;4253262;33;19989;-91
2022/10/03 03:13:35;;;;;;;;;;;;;;;16.43;59.03;99874.56;4267209;33;20288;-90
2022/10/03 03:16:11;;;;;;;;;;;;;;;16.36;59.26;99878.97;4254568;33;19989;-91
2022/10/03 03:18:41;;;;;;;;;;;;;;;16.40;59.08;99879.81;4265543;33;20007;-89
2022/10/03 03:21:32;;;;;;;;;;;;;;;16.48;58.66;99885.84;4264356;33;19991;-92
2022/10/03 03:23:59;;;;;;;;;;;;;;;16.37;59.10;99882.44;4244540;33;20000;-91
2022/10/03 03:26:44;;;;;;;;;;;;;;;16.39;58.93;99891.16;4265792;33;20033;-92
2022/10/03 03:29:21;;;;;;;;;;;;;;;16.38;58.85;99887.66;4267151;33;19997;-92
2022/10/03 03:32:00;;;;;;;;;;;;;;;16.34;58.88;99882.50;4266964;33;19982;-89
2022/10/03 03:34:27;;;;;;;;;;;;;;;16.26;59.06;99880.78;4267663;33;20042;-90
2022/10/03 03:36:58;;;;;;;;;;;;;;;15.95;60.21;99884.44;4263503;33;20007;-92
2022/10/03 03:39:32;;;;;;;;;;;;;;;16.03;59.94;99885.28;4266954;33;19985;-91
2022/10/03 03:42:11;;;;;;;;;;;;;;;16.24;59.37;99882.53;4249827;33;19984;-92
2022/10/03 03:44:58;;;;;;;;;;;;;;;16.36;58.93;99885.94;4254503;33;20012;-93
2022/10/03 03:47:26;;;;;;;;;;;;;;;16.06;59.71;99892.22;4254330;33;19995;-91
2022/10/03 03:49:58;;;;;;;;;;;;;;;16.24;59.34;99897.31;4266796;33;19993;-89
2022/10/03 03:52:40;;;;;;;;;;;;;;;16.18;59.44;99898.25;4267314;33;20606;-92
2022/10/03 03:55:16;;;;;;;;;;;;;;;16.30;58.78;99896.41;4259907;33;20003;-87
2022/10/03 03:57:50;;;;;;;;;;;;;;;16.02;59.35;99894.00;4254200;33;20750;-91
2022/10/03 04:00:19;;;;;;;;;;;;;;;16.17;59.36;99899.09;4266425;33;19989;-92
2022/10/03 04:02:51;;;;;;;;;;;;;;;16.22;59.08;99905.19;4260255;33;19985;-88
2022/10/03 04:05:25;;;;;;;;;;;;;;;16.26;58.99;99901.66;4252974;33;20037;-89
2022/10/03 04:08:06;;;;;;;;;;;;;;;16.21;58.79;99903.47;4255093;33;20436;-92
2022/10/03 04:10:46;;;;;;;;;;;;;;;16.25;58.66;99902.56;4255900;33;19988;-92
2022/10/03 04:13:17;;;;;;;;;;;;;;;16.17;58.92;99901.72;4245696;33;19990;-92
2022/10/03 04:15:51;;;;;;;;;;;;;;;16.00;59.30;99899.22;4269336;33;19981;-89
2022/10/03 04:21:15;;;;;;;;;;;;;;;16.03;59.19;99887.88;4250325;33;20000;-92
2022/10/03 04:24:00;;;;;;;;;;;;;;;15.84;59.51;99897.53;4269002;33;20052;-91
2022/10/03 04:26:30;;;;;;;;;;;;;;;16.09;58.81;99903.53;4268975;33;20004;-92
2022/10/03 04:29:04;;;;;;;;;;;;;;;16.01;59.10;99905.28;4255339;33;19989;-92
2022/10/03 04:31:42;;;;;;;;;;;;;;;16.06;58.87;99919.19;4258811;33;19985;-91
2022/10/03 04:34:22;;;;;;;;;;;;;;;16.06;59.06;99923.56;4253607;33;19985;-90
2022/10/03 04:37:11;;;;;;;;;;;;;;;15.99;59.28;99922.72;4268200;33;20023;-91
2022/10/03 04:39:46;;;;;;;;;;;;;;;15.40;60.70;99931.56;4253138;33;20999;-88
2022/10/03 04:42:13;;;;;;;;;;;;;;;15.87;59.66;99934.06;4238254;33;19985;-84
2022/10/03 04:44:46;;;;;;;;;;;;;;;16.04;59.18;99931.38;4267578;33;19981;-86
2022/10/03 04:47:15;;;;;;;;;;;;;;;16.08;58.98;99933.13;4253168;33;20445;-86
2022/10/03 04:49:51;;;;;;;;;;;;;;;16.01;59.40;99937.47;4265088;33;19989;-84
2022/10/03 04:52:24;;;;;;;;;;;;;;;15.86;59.48;99948.00;4253367;33;20060;-86
2022/10/03 04:54:51;;;;;;;;;;;;;;;16.03;59.05;99946.19;4267737;33;20001;-87
2022/10/03 04:57:30;;;;;;;;;;;;;;;16.00;59.31;99945.34;4267974;33;20283;-86
2022/10/03 05:00:03;;;;;;;;;;;;;;;16.07;59.01;99941.81;4255230;33;20283;-86
2022/10/03 05:02:32;;;;;;;;;;;;;;;16.01;58.99;99947.94;4249625;33;20034;-86
2022/10/03 05:05:18;;;;;;;;;;;;;;;15.89;59.62;99952.34;4267730;33;19985;-86
2022/10/03 05:08:06;;;;;;;;;;;;;;;15.80;59.82;99951.50;4255354;33;19980;-86
2022/10/03 05:10:48;;;;;;;;;;;;;;;15.90;59.66;99956.69;4268522;33;19985;-86
2022/10/03 05:13:41;;;;;;;;;;;;;;;15.93;59.55;99959.31;4267675;33;19985;-87
2022/10/03 05:16:24;;;;;;;;;;;;;;;15.93;59.15;99964.53;4260996;33;19978;-87
2022/10/03 05:18:56;;;;;;;;;;;;;;;15.92;59.14;99957.53;4248946;33;19997;-87
2022/10/03 05:21:40;;;;;;;;;;;;;;;15.75;59.99;99957.59;4255098;33;20029;-87
2022/10/03 05:24:11;;;;;;;;;;;;;;;16.03;58.99;99958.38;4255318;33;19993;-86
2022/10/03 05:26:40;;;;;;;;;;;;;;;16.19;58.09;99946.97;4268040;33;21566;-86
2022/10/03 05:29:26;;;;;;;;;;;;;;;16.10;58.32;99952.25;4268113;33;19993;-87
2022/10/03 05:32:12;;;;;;;;;;;;;;;16.05;58.78;99943.59;4254823;33;19977;-88
2022/10/03 05:34:51;;;;;;;;;;;;;;;15.71;59.27;99954.16;4266621;33;20689;-87
2022/10/03 05:37:19;;;;;;;;;;;;;;;15.70;59.74;99952.41;4254212;33;20850;-87
2022/10/03 05:40:06;;;;;;;;;;;;;;;15.51;60.00;99940.25;4267223;33;20019;-87
2022/10/03 05:42:42;;;;;;;;;;;;;;;15.56;59.71;99948.94;4267567;33;20012;-88
2022/10/03 05:45:22;;;;;;;;;;;;;;;15.65;59.49;99943.69;4245022;33;19993;-89
2022/10/03 05:47:57;;;;;;;;;;;;;;;15.85;59.02;99948.00;4256490;33;19981;-90
2022/10/03 05:50:33;;;;;;;;;;;;;;;15.81;59.23;99950.63;4254099;33;20008;-89
2022/10/03 05:53:07;;;;;;;;;;;;;;;15.37;60.73;99962.87;3974973;33;10000384;-89
2022/10/03 05:55:42;;;;;;;;;;;;;;;15.89;58.72;99953.22;4267975;33;20036;-90
2022/10/03 05:58:23;;;;;;;;;;;;;;;15.79;59.27;99961.94;4249830;33;20000;-86
2022/10/03 06:01:08;;;;;;;;;;;;;;;15.49;60.31;99968.09;4248364;33;19981;-90
2022/10/03 06:03:41;;;;;;;;;;;;;;;15.85;58.88;99963.66;4267202;33;19989;-87
2022/10/03 06:06:23;;;;;;;;;;;;;;;15.78;59.07;99961.06;4267870;33;19993;-89
2022/10/03 06:08:55;;;;;;;;;;;;;;;15.76;58.97;99970.69;4254589;33;19985;-89
2022/10/03 06:11:24;;;;;;;;;;;;;;;15.55;59.72;99978.50;4260716;33;20324;-89
2022/10/03 06:13:58;;;;;;;;;;;;;;;15.80;58.56;99974.12;4267352;33;20366;-89
2022/10/03 06:16:29;;;;;;;;;;;;;;;15.96;57.87;99985.41;4118652;33;5001278;-89
2022/10/03 06:19:06;;;;;;;;;;;;;;;15.95;56.92;99988.84;4260458;33;19990;-85
2022/10/03 06:21:32;;;;;;;;;;;;;;;15.85;57.71;100002.81;4248205;33;20008;-88
2022/10/03 06:24:00;;;;;;;;;;;;;;;15.75;58.02;100007.19;4257248;33;20065;-91
2022/10/03 06:26:29;;;;;;;;;;;;;;;15.88;57.31;100008.03;4267506;33;20015;-87
2022/10/03 06:29:15;;;;;;;;;;;;;;;16.02;56.68;100006.28;4267111;33;19988;-87
2022/10/03 06:31:57;;;;;;;;;;;;;;;15.98;56.49;100020.19;4267946;33;19999;-83
2022/10/03 06:34:24;;;;;;;;;;;;;;;15.83;57.52;100021.13;4267830;33;19985;-91
2022/10/03 06:36:51;;;;;;;;;;;;;;;15.86;56.95;100020.22;4267012;33;20008;-87
2022/10/03 06:39:41;;;;;;;;;;;;;;;15.84;57.09;100027.19;4267778;33;20008;-88
2022/10/03 06:42:20;;;;;;;;;;;;;;;15.98;56.03;100020.19;4254350;33;20431;-86
2022/10/03 06:45:00;;;;;;;;;;;;;;;15.94;56.27;100013.25;4267275;33;20001;-87
2022/10/03 06:47:46;;;;;;;;;;;;;;;16.02;56.33;100019.31;4267672;33;20007;-85
2022/10/03 06:50:32;;;;;;;;;;;;;;;16.29;55.99;100015.72;4254444;33;19985;-86
2022/10/03 06:53:11;;;;;;;;;;;;;;;16.30;55.68;100013.97;4267084;33;19985;-87
2022/10/03 06:55:53;;;;;;;;;;;;;;;16.57;53.61;100016.47;4254832;33;20050;-87
2022/10/03 06:58:22;;;;;;;;;;;;;;;16.67;53.81;100012.03;4267308;33;20533;-87
2022/10/03 07:01:07;;;;;;;;;;;;;;;16.60;53.94;100018.19;4266418;33;20036;-87
2022/10/03 07:03:35;;;;;;;;;;;;;;;17.26;51.76;100022.97;4267367;33;19981;-87
2022/10/03 07:06:14;;;;;;;;;;;;;;;17.34;51.73;100016.81;4266878;33;19985;-88
2022/10/03 07:08:44;;;;;;;;;;;;;;;17.55;51.06;100026.22;4267762;33;19993;-87
2022/10/03 07:11:29;;;;;;;;;;;;;;;17.73;50.19;100014.69;4266449;33;20028;-89
2022/10/03 07:14:07;;;;;;;;;;;;;;;17.55;51.18;100018.38;4267955;33;19993;-87
2022/10/03 07:16:52;;;;;;;;;;;;;;;18.00;49.78;100007.47;4254345;33;20008;-89
2022/10/03 07:19:20;;;;;;;;;;;;;;;17.81;50.42;100027.75;4137281;33;19981;-88
2022/10/03 07:22:03;;;;;;;;;;;;;;;17.88;50.08;100003.22;4267018;33;19977;-87
2022/10/03 07:24:30;;;;;;;;;;;;;;;17.78;49.97;100023.41;4266598;33;19981;-87
2022/10/03 07:27:07;;;;;;;;;;;;;;;17.69;50.65;100028.69;4266740;33;19985;-87
2022/10/03 07:29:52;;;;;;;;;;;;;;;18.09;49.90;100031.81;4265972;33;20291;-87
2022/10/03 07:32:23;;;;;;;;;;;;;;;18.07;49.68;100017.84;4265337;33;19993;-86
2022/10/03 07:35:02;;;;;;;;;;;;;;;18.04;49.81;100019.63;4261938;33;19977;-86
2022/10/03 07:41:11;;;;;;;;;;;;;;;18.08;49.74;100026.56;4254609;33;20340;-85
2022/10/03 07:43:40;;;;;;;;;;;;;;;18.35;50.47;100030.63;4267480;33;20328;-87
2022/10/03 07:46:25;;;;;;;;;;;;;;;18.46;48.95;100022.59;4272023;33;19973;-86
2022/10/03 07:49:11;;;;;;;;;;;;;;;18.65;50.28;100017.97;4240459;33;918720;-85
2022/10/03 07:51:58;;;;;;;;;;;;;;;18.97;48.57;100021.03;4271709;33;19997;-84
2022/10/03 07:54:28;;;;;;;;;;;;;;;19.05;48.48;100034.91;4271740;33;20152;-84
2022/10/03 07:57:09;;;;;;;;;;;;;;;19.01;47.85;100033.19;4264016;33;19988;-83
2022/10/03 07:59:55;;;;;;;;;;;;;;;18.74;47.53;100028.38;4269556;33;19981;-84
2022/10/03 08:02:28;;;;;;;;;;;;;;;18.88;47.87;100047.41;4271631;33;20348;-83
2022/10/03 08:05:13;;;;;;;;;;;;;;;18.25;48.39;100034.22;4271629;33;19989;-85
2022/10/03 08:07:48;;;;;;;;;;;;;;;18.47;49.32;100048.78;4271349;33;20032;-85
2022/10/03 08:10:34;;;;;;;;;;;;;;;18.65;49.61;100039.81;4271013;33;19989;-85
2022/10/03 08:13:18;;;;;;;;;;;;;;;18.93;46.75;100029.84;4267265;33;20017;-85
2022/10/03 08:15:54;;;;;;;;;;;;;;;18.96;46.77;100050.78;4271644;33;19993;-85
2022/10/03 08:18:44;;;;;;;;;;;;;;;18.89;45.65;100057.03;4273361;33;19977;-84
2022/10/03 08:21:17;;;;;;;;;;;;;;;18.96;45.40;100039.44;4260485;33;20012;-86
2022/10/03 08:24:04;;;;;;;;;;;;;;;19.43;45.85;100045.66;4278466;33;20486;-84
2022/10/03 08:26:40;;;;;;;;;;;;;;;19.66;44.22;100040.06;4268957;33;20003;-84
2022/10/03 08:29:26;;;;;;;;;;;;;;;19.67;45.17;100044.41;4273268;33;19995;-84
2022/10/03 08:32:11;;;;;;;;;;;;;;;19.16;43.93;100041.75;4277248;33;19994;-84
2022/10/03 08:34:53;;;;;;;;;;;;;;;19.12;45.74;100040.06;4271766;33;19985;-85
2022/10/03 08:37:40;;;;;;;;;;;;;;;19.19;46.10;100044.31;4256767;33;19993;-85
2022/10/03 08:40:26;;;;;;;;;;;;;;;19.66;42.62;100037.44;4258975;33;20380;-86
2022/10/03 08:42:53;;;;;;;;;;;;;;;19.60;44.65;100042.75;4240170;33;20452;-85
2022/10/03 08:45:46;;;;;;;;;;;;;;;19.78;43.34;100045.06;4263760;33;19993;-84
2022/10/03 08:48:26;;;;;;;;;;;;;;;19.70;43.06;100034.72;4259215;33;19989;-86
2022/10/03 08:51:04;;;;;;;;;;;;;;;19.79;42.62;100036.31;4267564;33;20711;-86
2022/10/03 08:53:31;;;;;;;;;;;;;;;19.84;45.10;100037.06;4240974;33;20010;-85
2022/10/03 08:56:17;;;;;;;;;;;;;;;20.02;41.98;100025.38;4263130;33;20041;-84
2022/10/03 08:58:50;;;;;;;;;;;;;;;19.78;44.79;100042.44;4265981;33;19989;-85
2022/10/03 09:01:17;;;;;;;;;;;;;;;19.69;43.32;100042.62;4260044;33;19985;-84
2022/10/03 09:03:47;;;;;;;;;;;;;;;19.67;43.19;100034.78;4272507;33;20005;-86
2022/10/03 09:06:53;;;;;;;;;;;;;;;19.55;43.04;100034.09;4265804;33;20737;-86
2022/10/03 09:09:59;;;;;;;;;;;;;;;19.51;44.32;100049.91;4253428;33;20013;-84
2022/10/03 09:12:31;;;;;;;;;;;;;;;19.78;43.22;100044.22;4240787;33;20074;-85
2022/10/03 09:15:10;;;;;;;;;;;;;;;19.88;44.50;100065.03;4277856;33;20124;-85
2022/10/03 09:17:37;;;;;;;;;;;;;;;19.90;43.87;100036.97;4274075;33;19993;-87
2022/10/03 09:20:09;;;;;;;;;;;;;;;19.82;44.14;100044.13;4266975;33;19989;-86
2022/10/03 09:22:36;;;;;;;;;;;;;;;19.91;44.35;100058.84;4250184;33;20021;-85
2022/10/03 09:25:04;;;;;;;;;;;;;;;20.20;42.08;100046.03;4252778;33;19993;-88
2022/10/03 09:27:46;;;;;;;;;;;;;;;19.94;44.33;100054.44;4266694;33;20316;-85
2022/10/03 09:30:14;;;;;;;;;;;;;;;20.19;43.64;100048.66;4267192;33;19985;-86
2022/10/03 09:32:48;;;;;;;;;;;;;;;20.48;43.53;100060.34;4261618;33;19973;-86
2022/10/03 09:35:30;;;;;;;;;;;;;;;20.37;44.82;100053.56;4266196;33;20328;-87
2022/10/03 09:38:03;;;;;;;;;;;;;;;20.14;43.90;100066.31;4266903;33;20350;-86
2022/10/03 09:40:33;;;;;;;;;;;;;;;20.13;45.59;100069.81;4267616;33;20004;-85
2022/10/03 09:43:18;;;;;;;;;;;;;;;20.57;42.23;100062.84;4266601;33;19991;-86
2022/10/03 09:45:48;;;;;;;;;;;;;;;20.52;41.70;100067.34;4266828;33;20480;-85
2022/10/03 09:48:18;;;;;;;;;;;;;;;20.14;42.94;100082.09;4267627;33;20015;-85
2022/10/03 09:51:06;;;;;;;;;;;;;;;19.78;43.93;100063.47;4266379;33;20403;-86
2022/10/03 09:53:42;;;;;;;;;;;;;;;19.80;42.89;100077.44;4266812;33;19995;-85
2022/10/03 09:56:24;;;;;;;;;;;;;;;19.86;43.39;100076.47;4266484;33;20011;-85
2022/10/03 09:59:04;;;;;;;;;;;;;;;19.63;44.90;100069.84;4265426;33;20011;-84
2022/10/03 10:01:39;;;;;;;;;;;;;;;19.32;46.90;100090.47;4266542;33;19996;-86
2022/10/03 10:04:25;;;;;;;;;;;;;;;19.75;44.43;100081.94;4265950;33;20045;-85
2022/10/03 10:07:31;;;;;;;;;;;;;;;19.46;44.36;100087.63;4261044;33;19990;-85
2022/10/03 10:10:02;;;;;;;;;;;;;;;19.83;42.13;100072.13;4251371;33;19993;-85
2022/10/03 10:12:35;;;;;;;;;;;;;;;20.01;42.14;100065.69;4264657;33;19989;-85
2022/10/03 10:15:02;;;;;;;;;;;;;;;20.12;42.35;100060.22;4265320;33;19992;-85
2022/10/03 10:17:41;;;;;;;;;;;;;;;20.04;42.40;100075.25;4265723;33;20099;-85
2022/10/03 10:20:21;;;;;;;;;;;;;;;19.45;43.09;100078.88;4257728;33;19989;-84
2022/10/03 10:22:50;;;;;;;;;;;;;;;19.49;43.37;100088.44;4253462;33;20037;-85
2022/10/03 10:25:23;;;;;;;;;;;;;;;19.47;43.64;100074.47;4264607;33;20009;-85
2022/10/03 10:27:59;;;;;;;;;;;;;;;19.49;44.25;100083.19;4264678;33;20484;-85
2022/10/03 10:30:35;;;;;;;;;;;;;;;19.46;43.08;100083.25;4265118;33;19989;-84
2022/10/03 10:33:02;;;;;;;;;;;;;;;19.25;45.31;100083.59;4265366;33;19985;-85
2022/10/03 10:35:44;;;;;;;;;;;;;;;19.49;43.81;100088.44;4263686;33;19989;-85
2022/10/03 10:38:20;;;;;;;;;;;;;;;19.25;44.52;100079.19;4265811;33;20058;-83
2022/10/03 10:40:56;;;;;;;;;;;;;;;19.43;43.01;100083.31;4265565;33;19989;-84
2022/10/03 10:43:28;;;;;;;;;;;;;;;19.21;43.35;100081.91;4265058;33;19989;-84
2022/10/03 10:46:05;;;;;;;;;;;;;;;19.23;44.25;100077.47;4264827;33;19993;-85
2022/10/03 10:48:51;;;;;;;;;;;;;;;19.20;46.29;100086.25;4257301;33;19993;-83
2022/10/03 10:51:37;;;;;;;;;;;;;;;18.82;47.42;100078.94;4265869;33;19992;-83
2022/10/03 10:54:28;;;;;;;;;;;;;;;19.45;45.20;100071.00;4265510;33;19977;-84
2022/10/03 10:57:13;;;;;;;;;;;;;;;19.36;44.70;100063.28;4259273;33;20033;-85
2022/10/03 10:59:46;;;;;;;;;;;;;;;19.38;44.75;100069.38;4269510;33;19985;-86
2022/10/03 11:02:24;;;;;;;;;;;;;;;19.41;44.63;100064.06;4267426;33;19993;-85
2022/10/03 11:05:12;;;;;;;;;;;;;;;19.16;44.99;100078.47;4260364;33;20288;-84
2022/10/03 11:07:51;;;;;;;;;;;;;;;19.21;44.46;100076.66;4267514;33;19981;-85
2022/10/03 11:10:42;;;;;;;;;;;;;;;18.95;45.75;100070.03;4267526;33;19981;-84
2022/10/03 11:13:26;;;;;;;;;;;;;;;19.20;44.66;100069.66;4264786;33;20521;-84
2022/10/03 11:16:10;;;;;;;;;;;;;;;19.15;46.12;100071.50;4258421;33;20015;-83
2022/10/03 11:18:58;;;;;;;;;;;;;;;19.18;45.40;100071.47;4261493;33;19986;-84
2022/10/03 11:21:33;;;;;;;;;;;;;;;19.42;44.97;100071.03;4279461;33;19989;-83
2022/10/03 11:24:11;;;;;;;;;;;;;;;19.55;44.12;100060.34;4278731;33;20031;-84
2022/10/03 11:26:53;;;;;;;;;;;;;;;19.34;44.85;100057.19;4258153;33;20351;-83
2022/10/03 11:29:39;;;;;;;;;;;;;;;19.40;45.95;100072.84;4278261;33;19981;-85
2022/10/03 11:32:25;;;;;;;;;;;;;;;19.26;45.16;100070.44;4267758;33;20037;-84
2022/10/03 11:35:05;;;;;;;;;;;;;;;19.23;44.64;100069.62;4258108;33;19978;-85
2022/10/03 11:37:38;;;;;;;;;;;;;;;19.14;44.57;100059.25;4243217;33;20269;-84
2022/10/03 11:40:08;;;;;;;;;;;;;;;19.38;44.40;100064.13;4244586;33;19995;-83
2022/10/03 11:42:38;;;;;;;;;;;;;;;19.22;45.43;100067.87;4244720;33;20058;-83
2022/10/03 11:45:11;;;;;;;;;;;;;;;18.99;45.20;100061.22;4245819;33;20009;-84
2022/10/03 11:47:41;;;;;;;;;;;;;;;19.15;44.07;100071.50;4233320;33;20585;-83
2022/10/03 11:50:28;;;;;;;;;;;;;;;18.88;43.93;100065.75;4234581;33;19996;-84
2022/10/03 11:53:06;;;;;;;;;;;;;;;18.98;44.52;100067.34;4257807;33;20065;-83
2022/10/03 11:55:41;;;;;;;;;;;;;;;18.96;44.70;100061.28;4262610;33;20421;-85
2022/10/03 11:58:11;;;;;;;;;;;;;;;19.23;44.80;100067.84;4253658;33;20031;-84
2022/10/03 12:00:39;;;;;;;;;;;;;;;19.30;44.62;100055.50;4259300;33;19978;-85
2022/10/03 12:03:12;;;;;;;;;;;;;;;19.07;46.11;100055.00;4260693;33;20134;-84
2022/10/03 12:05:39;;;;;;;;;;;;;;;19.16;46.06;100047.84;4255874;33;20056;-84
2022/10/03 12:11:12;;;;;;;;;;;;;;;19.29;44.54;100064.28;4252345;33;20011;-83
2022/10/03 12:13:58;;;;;;;;;;;;;;;19.54;42.83;100061.25;4241691;33;19985;-85
2022/10/03 12:16:29;;;;;;;;;;;;;;;19.37;44.44;100064.13;4258564;33;19977;-83
2022/10/03 12:19:05;;;;;;;;;;;;;;;19.47;43.55;100063.97;4243779;33;20076;-84
2022/10/03 12:21:39;;;;;;;;;;;;;;;19.27;44.67;100055.53;4265145;33;20335;-84
2022/10/03 12:24:30;;;;;;;;;;;;;;;19.35;43.85;100063.31;4244443;33;19993;-85
2022/10/03 12:26:59;;;;;;;;;;;;;;;18.94;44.12;100060.41;4255138;33;20001;-83
2022/10/03 12:29:27;;;;;;;;;;;;;;;18.81;44.46;100064.13;4266418;33;20041;-85
2022/10/03 12:31:57;;;;;;;;;;;;;;;18.69;44.90;100045.88;4236204;33;20031;-85
2022/10/03 12:34:28;;;;;;;;;;;;;;;18.98;44.33;100046.38;4263714;33;20008;-83
2022/10/03 12:37:14;;;;;;;;;;;;;;;18.87;43.30;100056.16;4260982;33;20048;-86
2022/10/03 12:39:44;;;;;;;;;;;;;;;18.87;44.55;100045.66;4241144;33;20401;-85
2022/10/03 12:42:28;;;;;;;;;;;;;;;18.91;43.12;100044.72;4257866;33;19986;-84
2022/10/03 12:45:03;;;;;;;;;;;;;;;18.93;42.70;100040.34;4259271;33;19998;-85
2022/10/03 12:47:38;;;;;;;;;;;;;;;19.13;43.16;100041.78;4260010;33;20005;-84
2022/10/03 12:50:22;;;;;;;;;;;;;;;19.26;42.58;100054.69;4258337;33;20034;-85
2022/10/03 12:53:05;;;;;;;;;;;;;;;19.46;41.93;100046.50;4259193;33;20030;-84
2022/10/03 12:55:32;;;;;;;;;;;;;;;19.52;41.69;100030.59;4262304;33;19985;-85
2022/10/03 12:58:02;;;;;;;;;;;;;;;19.10;41.91;100031.34;4261423;33;20045;-83
2022/10/03 13:00:35;;;;;;;;;;;;;;;19.20;42.35;100035.53;4248489;33;20011;-84
2022/10/03 13:03:16;;;;;;;;;;;;;;;19.09;43.72;100048.84;4260093;33;19989;-83
2022/10/03 13:05:42;;;;;;;;;;;;;;;19.02;46.47;100074.31;4269185;33;19996;-82
2022/10/03 13:08:20;;;;;;;;;;;;;;;18.43;52.80;100089.03;4269438;33;19989;-83
2022/10/03 13:10:47;;;;;;;;;;;;;;;18.27;53.12;100077.87;4255599;33;20268;-85
2022/10/03 13:13:19;;;;;;;;;;;;;;;18.22;53.08;100086.66;4272703;33;19977;-84
2022/10/03 13:16:04;;;;;;;;;;;;;;;17.97;54.52;100081.72;4269220;33;19985;-85
2022/10/03 13:18:35;;;;;;;;;;;;;;;17.90;55.76;100064.31;3962072;33;10004288;-86
2022/10/03 13:21:08;;;;;;;;;;;;;;;18.12;54.00;100060.59;4268100;33;19981;-87
2022/10/03 13:24:04;;;;;;;;;;;;;;;18.04;53.05;100059.78;4263206;33;21195;-82
2022/10/03 13:26:49;;;;;;;;;;;;;;;18.32;51.80;100042.00;4270032;33;19989;-85
2022/10/03 13:29:28;;;;;;;;;;;;;;;18.20;52.93;100057.00;4268130;33;19993;-87
2022/10/03 13:32:06;;;;;;;;;;;;;;;18.40;51.56;100049.75;4264434;33;20059;-86
2022/10/03 13:34:36;;;;;;;;;;;;;;;18.17;51.53;100046.56;4267337;33;20435;-87
2022/10/03 13:37:11;;;;;;;;;;;;;;;18.20;51.09;100054.37;4267722;33;19989;-85
2022/10/03 13:39:44;;;;;;;;;;;;;;;18.05;50.85;100053.66;4250744;33;19985;-84
2022/10/03 13:42:28;;;;;;;;;;;;;;;18.22;49.98;100057.84;4266649;33;20007;-82
2022/10/03 13:44:55;;;;;;;;;;;;;;;18.20;49.05;100062.25;4259967;33;19997;-83